Time;durP1;ratioP1;P1;durP2;ratioP2;P2;SDS_P1;SDS_P2;PMS_P1;PMS_P2;Temp;Humidity;BMP_temperature;BMP_pressure;BME280_temperature;BME280_humidity;BME280_pressure;Samples;Min_cycle;Max_cycle;Signal;HPM_P1;HPM_P2
2023/04/07 00:02:19;;;;;;;0.40;0.40;;;6.50;99.90;;;;;;5051830;28;20328;-69
2023/04/07 00:04:46;;;;;;;0.40;0.40;;;6.60;99.90;;;;;;5051507;28;20191;-68
2023/04/07 00:07:13;;;;;;;0.40;0.40;;;6.60;99.90;;;;;;5043142;28;20210;-68
2023/04/07 00:09:40;;;;;;;0.40;0.40;;;6.50;99.90;;;;;;5052502;28;20204;-68
2023/04/07 00:12:08;;;;;;;0.40;0.40;;;6.50;99.90;;;;;;5049838;28;20215;-69
2023/04/07 00:14:35;;;;;;;0.40;0.40;;;6.50;99.90;;;;;;5050658;28;20303;-68
2023/04/07 00:17:02;;;;;;;0.40;0.40;;;6.50;99.90;;;;;;5033080;28;20295;-68
2023/04/07 00:19:29;;;;;;;0.40;0.40;;;6.50;99.90;;;;;;5050015;28;20217;-67
2023/04/07 00:21:56;;;;;;;0.40;0.40;;;6.50;99.90;;;;;;5051936;28;20273;-68
2023/04/07 00:24:23;;;;;;;0.40;0.40;;;6.50;99.90;;;;;;5052062;28;21028;-70
2023/04/07 00:27:00;;;;;;;0.40;0.40;;;6.50;99.90;;;;;;5041004;28;20214;-71
2023/04/07 00:29:28;;;;;;;0.40;0.40;;;6.50;99.90;;;;;;5051131;28;20203;-70
2023/04/07 00:31:55;;;;;;;0.40;0.40;;;6.50;99.90;;;;;;5041906;28;20806;-71
2023/04/07 00:34:22;;;;;;;0.40;0.40;;;6.50;99.90;;;;;;5034187;28;20291;-72
2023/04/07 00:36:51;;;;;;;0.40;0.40;;;6.60;99.90;;;;;;5049920;28;20204;-73
2023/04/07 00:39:21;;;;;;;0.40;0.40;;;6.60;99.90;;;;;;5048216;28;20231;-71
2023/04/07 00:41:48;;;;;;;0.40;0.40;;;6.60;99.90;;;;;;5049378;28;20582;-70
2023/04/07 00:44:15;;;;;;;0.40;0.40;;;6.60;99.90;;;;;;5048591;28;20216;-70
2023/04/07 00:46:47;;;;;;;0.40;0.40;;;6.70;99.90;;;;;;5048040;28;20254;-69
2023/04/07 00:49:16;;;;;;;0.40;0.40;;;6.70;99.90;;;;;;5028659;28;20667;-69
2023/04/07 00:51:45;;;;;;;0.40;0.40;;;6.70;99.90;;;;;;5050097;28;20204;-70
2023/04/07 00:54:15;;;;;;;0.40;0.40;;;6.70;99.90;;;;;;5051699;28;20319;-70
2023/04/07 00:56:43;;;;;;;0.40;0.40;;;6.70;99.90;;;;;;5043824;28;20290;-73
2023/04/07 00:59:16;;;;;;;0.40;0.40;;;6.70;99.90;;;;;;5052301;28;20675;-72
2023/04/07 01:02:10;;;;;;;0.40;0.40;;;6.70;99.90;;;;;;5050827;28;20219;-71
2023/04/07 01:04:59;;;;;;;0.40;0.40;;;6.80;99.90;;;;;;5012098;28;20215;-72
2023/04/07 01:07:55;;;;;;;0.40;0.40;;;6.80;99.90;;;;;;5050286;28;20195;-71
2023/04/07 01:10:50;;;;;;;0.40;0.40;;;6.80;99.90;;;;;;5034764;28;20214;-73
2023/04/07 01:14:01;;;;;;;0.40;0.40;;;6.80;99.90;;;;;;5035332;28;20561;-69
2023/04/07 01:16:47;;;;;;;0.40;0.40;;;6.90;99.90;;;;;;5016969;28;20241;-69
2023/04/07 01:19:42;;;;;;;0.40;0.40;;;6.80;99.90;;;;;;5049742;28;20214;-69
2023/04/07 01:22:20;;;;;;;0.40;0.40;;;6.80;99.90;;;;;;5050059;28;20242;-69
2023/04/07 01:24:58;;;;;;;0.40;0.40;;;6.80;99.90;;;;;;5040165;28;20660;-69
2023/04/07 01:27:51;;;;;;;0.40;0.40;;;6.80;99.90;;;;;;5050290;28;20203;-69
2023/04/07 01:30:20;;;;;;;0.40;0.40;;;6.80;99.90;;;;;;5050538;28;20278;-67
2023/04/07 01:32:50;;;;;;;0.40;0.40;;;6.80;99.90;;;;;;5041933;28;20226;-68
2023/04/07 01:35:21;;;;;;;0.40;0.40;;;6.80;99.90;;;;;;5049419;28;20207;-72
2023/04/07 01:37:49;;;;;;;0.40;0.40;;;6.80;99.90;;;;;;5049071;28;20199;-68
2023/04/07 01:40:17;;;;;;;0.40;0.40;;;6.90;99.90;;;;;;5049401;28;20629;-68
2023/04/07 01:42:46;;;;;;;0.40;0.40;;;6.90;99.90;;;;;;5049619;28;20637;-68
2023/04/07 01:45:15;;;;;;;0.40;0.40;;;6.90;99.90;;;;;;5049902;28;20214;-68
2023/04/07 01:47:44;;;;;;;0.40;0.40;;;6.90;99.90;;;;;;5049531;28;20192;-69
2023/04/07 01:50:12;;;;;;;0.40;0.40;;;6.90;99.90;;;;;;5049498;28;20555;-68
2023/04/07 01:52:41;;;;;;;0.40;0.40;;;6.90;99.90;;;;;;5048585;28;20207;-68
2023/04/07 01:55:09;;;;;;;0.40;0.40;;;6.90;99.90;;;;;;5051396;28;20206;-68
2023/04/07 01:57:43;;;;;;;0.40;0.40;;;6.80;99.90;;;;;;5048936;28;20212;-69
2023/04/07 02:00:16;;;;;;;0.40;0.40;;;6.80;99.90;;;;;;5049609;28;20270;-68
2023/04/07 02:02:57;;;;;;;0.40;0.40;;;6.80;99.90;;;;;;5050387;28;20238;-68
2023/04/07 02:05:26;;;;;;;0.40;0.40;;;6.80;99.90;;;;;;5050920;28;20191;-68
2023/04/07 02:08:07;;;;;;;0.40;0.40;;;6.80;99.90;;;;;;5043863;28;20269;-67
2023/04/07 02:10:37;;;;;;;0.40;0.40;;;6.90;99.90;;;;;;5049937;28;20654;-67
2023/04/07 02:13:07;;;;;;;0.50;0.50;;;6.90;99.90;;;;;;5033967;28;20207;-67
2023/04/07 02:15:36;;;;;;;0.40;0.40;;;6.90;99.90;;;;;;5047523;28;20231;-67
2023/04/07 02:18:05;;;;;;;0.40;0.40;;;6.90;99.90;;;;;;5050644;28;20311;-67
2023/04/07 02:20:35;;;;;;;0.40;0.40;;;6.90;99.90;;;;;;5048806;28;20583;-67
2023/04/07 02:23:02;;;;;;;0.40;0.40;;;6.90;99.90;;;;;;5050621;28;20651;-67
2023/04/07 02:25:31;;;;;;;0.40;0.40;;;6.90;99.90;;;;;;5049932;28;20209;-66
2023/04/07 02:28:00;;;;;;;0.40;0.40;;;6.90;99.90;;;;;;5049115;28;20188;-66
2023/04/07 02:30:28;;;;;;;0.40;0.40;;;7.00;99.90;;;;;;5043568;28;20647;-68
2023/04/07 02:32:56;;;;;;;0.40;0.40;;;7.00;99.90;;;;;;5041889;28;20202;-69
2023/04/07 02:35:23;;;;;;;0.40;0.40;;;7.00;99.90;;;;;;5042131;28;20808;-68
2023/04/07 02:37:50;;;;;;;0.40;0.40;;;7.00;99.90;;;;;;5047199;28;20275;-67
2023/04/07 02:40:17;;;;;;;0.40;0.40;;;6.90;99.90;;;;;;5043227;28;20196;-68
2023/04/07 02:42:45;;;;;;;0.30;0.30;;;7.00;99.90;;;;;;5043557;28;20223;-67
2023/04/07 02:45:19;;;;;;;0.40;0.40;;;7.10;99.90;;;;;;5047194;28;20199;-67
2023/04/07 02:47:50;;;;;;;0.40;0.40;;;7.00;99.90;;;;;;5032714;28;20196;-71
2023/04/07 02:50:17;;;;;;;0.40;0.40;;;7.00;99.90;;;;;;5028100;28;20667;-68
2023/04/07 02:52:44;;;;;;;0.40;0.40;;;7.00;99.90;;;;;;5045834;28;20196;-68
2023/04/07 02:55:13;;;;;;;0.40;0.40;;;7.00;99.90;;;;;;5048256;28;20202;-69
2023/04/07 02:57:41;;;;;;;0.40;0.40;;;7.00;99.90;;;;;;5032886;28;20199;-68
2023/04/07 03:00:21;;;;;;;0.40;0.40;;;7.00;99.90;;;;;;5049423;28;20207;-68
2023/04/07 03:03:14;;;;;;;0.40;0.40;;;7.00;99.90;;;;;;5046319;28;20281;-68
2023/04/07 03:05:52;;;;;;;0.40;0.40;;;7.00;99.90;;;;;;5064143;28;20588;-68
2023/04/07 03:08:19;;;;;;;0.40;0.40;;;7.00;99.90;;;;;;5049636;28;20195;-67
2023/04/07 03:10:48;;;;;;;0.40;0.40;;;7.00;99.90;;;;;;5041090;28;20196;-67
2023/04/07 03:13:20;;;;;;;0.40;0.40;;;6.90;99.90;;;;;;5048954;28;20191;-67
2023/04/07 03:15:47;;;;;;;0.40;0.40;;;6.90;99.90;;;;;;5047453;28;20605;-68
2023/04/07 03:18:15;;;;;;;0.40;0.40;;;6.90;99.90;;;;;;5048650;28;20628;-67
2023/04/07 03:20:46;;;;;;;0.40;0.40;;;6.90;99.90;;;;;;5048107;28;20902;-67
2023/04/07 03:23:16;;;;;;;0.40;0.40;;;6.90;99.90;;;;;;5048695;28;20224;-67
2023/04/07 03:25:43;;;;;;;0.40;0.40;;;6.90;99.90;;;;;;5047511;28;20246;-67
2023/04/07 03:28:16;;;;;;;0.50;0.50;;;6.90;99.90;;;;;;5049290;28;20278;-66
2023/04/07 03:30:43;;;;;;;0.40;0.40;;;6.90;99.90;;;;;;5047655;28;20211;-66
2023/04/07 03:33:11;;;;;;;0.40;0.40;;;7.00;99.90;;;;;;5042216;28;20238;-66
2023/04/07 03:35:38;;;;;;;0.40;0.40;;;6.90;99.90;;;;;;5047444;28;20199;-66
2023/04/07 03:38:05;;;;;;;0.40;0.40;;;6.90;99.90;;;;;;5048129;28;20195;-67
2023/04/07 03:40:34;;;;;;;0.40;0.40;;;6.90;99.90;;;;;;5049812;28;20245;-66
2023/04/07 03:43:02;;;;;;;0.40;0.40;;;6.90;99.90;;;;;;5047323;28;20237;-66
2023/04/07 03:45:29;;;;;;;0.40;0.40;;;6.90;99.90;;;;;;5047897;28;20318;-66
2023/04/07 03:47:56;;;;;;;0.40;0.40;;;6.90;99.90;;;;;;5048443;28;20196;-66
2023/04/07 03:50:23;;;;;;;0.40;0.40;;;6.90;99.90;;;;;;5050091;28;20188;-66
2023/04/07 03:53:15;;;;;;;0.30;0.30;;;6.90;99.90;;;;;;5048611;28;20211;-67
2023/04/07 03:55:43;;;;;;;0.40;0.40;;;7.00;99.90;;;;;;5047272;28;20218;-67
2023/04/07 03:58:21;;;;;;;0.40;0.40;;;6.90;99.90;;;;;;5041662;28;20203;-66
2023/04/07 04:00:49;;;;;;;0.40;0.40;;;6.90;99.90;;;;;;5046831;28;20674;-67
2023/04/07 04:03:16;;;;;;;0.40;0.40;;;6.90;99.90;;;;;;5029713;28;20284;-66
2023/04/07 04:05:58;;;;;;;0.40;0.40;;;7.00;99.90;;;;;;5046892;28;20229;-71
2023/04/07 04:08:29;;;;;;;0.40;0.40;;;6.90;99.90;;;;;;5048237;28;20711;-66
2023/04/07 04:10:56;;;;;;;0.40;0.40;;;6.90;99.90;;;;;;5049403;28;20682;-66
2023/04/07 04:13:27;;;;;;;0.40;0.40;;;6.90;99.90;;;;;;5047284;28;20585;-67
2023/04/07 04:15:57;;;;;;;0.40;0.40;;;6.90;99.90;;;;;;5046491;28;20203;-67
2023/04/07 04:18:25;;;;;;;0.40;0.40;;;6.80;99.90;;;;;;5046348;28;20290;-66
2023/04/07 04:20:53;;;;;;;0.40;0.40;;;7.30;99.90;;;;;;5037293;28;20276;-67
2023/04/07 04:23:20;;;;;;;0.40;0.40;;;7.30;99.90;;;;;;5047702;28;20294;-67
2023/04/07 04:25:51;;;;;;;0.33;0.33;;;7.30;99.90;;;;;;5039896;28;20308;-67
2023/04/07 04:28:18;;;;;;;0.40;0.40;;;7.30;99.90;;;;;;5046927;28;20188;-67
2023/04/07 04:30:45;;;;;;;0.40;0.40;;;7.30;99.90;;;;;;5031040;28;20261;-67
2023/04/07 04:33:12;;;;;;;0.40;0.40;;;7.20;99.90;;;;;;5031926;28;20200;-66
2023/04/07 04:35:48;;;;;;;0.40;0.40;;;7.30;99.90;;;;;;5047563;28;20234;-67
2023/04/07 04:38:18;;;;;;;0.50;0.50;;;7.30;99.90;;;;;;5041884;28;20225;-67
2023/04/07 04:40:52;;;;;;;0.40;0.40;;;7.30;99.90;;;;;;5045248;28;20206;-66
2023/04/07 04:43:24;;;;;;;2.00;1.90;;;7.30;99.90;;;;;;5044955;28;20276;-69
2023/04/07 04:45:52;;;;;;;0.40;0.40;;;7.40;99.90;;;;;;5043739;28;20754;-67
2023/04/07 04:48:23;;;;;;;0.40;0.40;;;7.40;99.90;;;;;;5042893;28;20762;-75
2023/04/07 04:50:50;;;;;;;0.40;0.40;;;7.40;99.90;;;;;;5043635;28;20724;-66
2023/04/07 04:53:17;;;;;;;0.40;0.40;;;7.40;99.90;;;;;;5048709;28;20196;-67
2023/04/07 04:55:51;;;;;;;0.40;0.40;;;7.40;99.90;;;;;;5045130;28;20203;-67
2023/04/07 04:58:29;;;;;;;0.40;0.40;;;7.30;99.90;;;;;;5045636;28;20238;-67
2023/04/07 05:00:57;;;;;;;0.40;0.40;;;7.30;99.90;;;;;;5042752;28;20285;-67
2023/04/07 05:03:32;;;;;;;0.40;0.40;;;7.30;99.90;;;;;;5047125;28;20718;-67
2023/04/07 05:06:03;;;;;;;0.40;0.40;;;7.40;99.90;;;;;;5041320;28;20627;-67
2023/04/07 05:08:30;;;;;;;0.40;0.40;;;7.40;99.90;;;;;;5051180;28;20287;-66
2023/04/07 05:10:59;;;;;;;0.40;0.40;;;7.30;99.90;;;;;;5049579;28;20211;-66
2023/04/07 05:13:30;;;;;;;0.40;0.40;;;7.30;99.90;;;;;;5050984;28;20307;-66
2023/04/07 05:16:00;;;;;;;0.40;0.40;;;7.20;99.90;;;;;;5044581;28;20200;-68
2023/04/07 05:18:28;;;;;;;0.40;0.40;;;7.20;99.90;;;;;;5028079;28;20195;-68
2023/04/07 05:20:57;;;;;;;0.40;0.40;;;7.20;99.90;;;;;;5043109;28;20218;-67
2023/04/07 05:23:26;;;;;;;0.40;0.40;;;7.30;99.90;;;;;;5043298;28;20556;-68
2023/04/07 05:25:54;;;;;;;0.40;0.40;;;7.20;99.90;;;;;;5036663;28;20199;-66
2023/04/07 05:28:22;;;;;;;0.40;0.40;;;7.20;99.90;;;;;;5043403;28;20196;-66
2023/04/07 05:30:50;;;;;;;0.40;0.40;;;7.20;99.90;;;;;;5045366;28;20283;-67
2023/04/07 05:33:19;;;;;;;0.70;0.70;;;7.20;99.90;;;;;;5050298;28;20675;-66
2023/04/07 05:35:51;;;;;;;0.40;0.40;;;7.30;99.90;;;;;;5049938;28;20207;-67
2023/04/07 05:38:18;;;;;;;0.30;0.30;;;7.30;99.90;;;;;;5049415;28;20207;-66
2023/04/07 05:40:46;;;;;;;0.40;0.40;;;7.40;99.90;;;;;;5048787;28;20195;-69
2023/04/07 05:43:19;;;;;;;0.40;0.40;;;7.40;99.90;;;;;;5049666;28;20221;-67
2023/04/07 05:45:48;;;;;;;0.40;0.40;;;7.40;99.90;;;;;;5040123;28;20250;-67
2023/04/07 05:48:15;;;;;;;0.40;0.40;;;7.40;99.90;;;;;;5049297;28;20204;-67
2023/04/07 05:50:45;;;;;;;0.40;0.40;;;7.40;99.90;;;;;;5048052;28;20215;-67
2023/04/07 05:53:15;;;;;;;0.40;0.40;;;7.40;99.90;;;;;;5048931;28;20239;-67
2023/04/07 05:55:42;;;;;;;0.40;0.40;;;7.40;99.90;;;;;;5049232;28;20216;-68
2023/04/07 05:58:15;;;;;;;0.40;0.40;;;7.50;99.90;;;;;;5050042;28;20188;-67
2023/04/07 06:00:47;;;;;;;0.40;0.40;;;7.40;99.90;;;;;;5042954;28;20200;-67
2023/04/07 06:03:17;;;;;;;0.40;0.40;;;7.40;99.90;;;;;;5044924;28;20231;-68
2023/04/07 06:05:53;;;;;;;0.40;0.40;;;7.40;99.90;;;;;;5046398;28;20526;-67
2023/04/07 06:08:21;;;;;;;0.40;0.40;;;7.40;99.90;;;;;;5048490;28;20200;-67
2023/04/07 06:10:49;;;;;;;0.40;0.40;;;7.40;99.90;;;;;;5048416;28;20208;-67
2023/04/07 06:13:16;;;;;;;0.40;0.40;;;7.50;99.90;;;;;;5049855;28;20678;-67
2023/04/07 06:15:46;;;;;;;0.40;0.40;;;7.50;99.90;;;;;;5032722;28;20247;-67
2023/04/07 06:18:14;;;;;;;0.40;0.40;;;7.50;99.90;;;;;;5050512;28;20559;-66
2023/04/07 06:20:41;;;;;;;0.40;0.40;;;7.40;99.90;;;;;;5050191;28;20353;-66
2023/04/07 06:23:08;;;;;;;0.40;0.40;;;7.50;99.90;;;;;;5050461;28;20694;-66
2023/04/07 06:25:36;;;;;;;0.40;0.40;;;7.60;99.90;;;;;;5049250;28;20708;-66
2023/04/07 06:28:03;;;;;;;0.40;0.40;;;7.60;99.90;;;;;;5050185;28;20610;-67
2023/04/07 06:30:30;;;;;;;0.40;0.40;;;7.70;99.90;;;;;;5049255;28;20262;-66
2023/04/07 06:32:58;;;;;;;0.40;0.40;;;7.60;99.90;;;;;;5049492;28;20234;-67
2023/04/07 06:35:26;;;;;;;0.40;0.40;;;7.60;99.90;;;;;;5047467;28;20223;-67
2023/04/07 06:37:53;;;;;;;0.40;0.40;;;7.70;99.90;;;;;;5050112;28;20571;-67
2023/04/07 06:40:20;;;;;;;0.40;0.40;;;7.80;99.90;;;;;;5047658;28;20283;-68
2023/04/07 06:42:47;;;;;;;0.50;0.50;;;7.80;99.90;;;;;;5046351;28;20198;-67
2023/04/07 06:45:26;;;;;;;0.40;0.40;;;7.80;99.90;;;;;;5042003;28;20654;-66
2023/04/07 06:47:53;;;;;;;0.40;0.40;;;7.70;99.90;;;;;;5058515;28;20214;-67
2023/04/07 06:50:21;;;;;;;0.40;0.40;;;7.70;99.90;;;;;;5042670;28;20191;-67
2023/04/07 06:52:48;;;;;;;0.40;0.40;;;7.80;99.90;;;;;;5040048;28;20200;-68
2023/04/07 06:55:15;;;;;;;0.40;0.40;;;8.00;99.90;;;;;;5042321;28;20199;-67
2023/04/07 06:57:42;;;;;;;0.40;0.40;;;8.10;99.90;;;;;;5043211;28;20202;-69
2023/04/07 07:00:10;;;;;;;0.40;0.40;;;8.30;99.90;;;;;;5045892;28;20187;-67
2023/04/07 07:02:37;;;;;;;0.40;0.40;;;8.30;99.90;;;;;;5043139;28;20352;-69
2023/04/07 07:05:05;;;;;;;0.40;0.40;;;8.40;99.90;;;;;;5043662;28;20207;-67
2023/04/07 07:07:32;;;;;;;0.40;0.40;;;8.30;99.90;;;;;;5044919;28;20191;-68
2023/04/07 07:10:00;;;;;;;0.40;0.40;;;8.30;99.90;;;;;;5047638;28;20207;-67
2023/04/07 07:12:27;;;;;;;0.40;0.40;;;8.30;99.90;;;;;;5054795;28;20269;-68
2023/04/07 07:14:54;;;;;;;0.40;0.40;;;8.40;99.90;;;;;;5041047;28;20199;-71
2023/04/07 07:17:21;;;;;;;0.40;0.40;;;8.30;99.90;;;;;;5049098;28;20223;-70
2023/04/07 07:19:48;;;;;;;0.40;0.40;;;8.30;99.90;;;;;;5049881;28;20705;-69
2023/04/07 07:22:15;;;;;;;0.40;0.40;;;8.30;99.90;;;;;;5048914;28;20192;-69
2023/04/07 07:24:42;;;;;;;0.40;0.40;;;8.30;99.90;;;;;;5044925;28;20711;-69
2023/04/07 07:27:09;;;;;;;0.40;0.40;;;8.20;99.90;;;;;;5030881;28;20299;-68
2023/04/07 07:29:36;;;;;;;0.40;0.40;;;8.40;99.90;;;;;;5041255;28;20211;-69
2023/04/07 07:32:03;;;;;;;0.40;0.40;;;8.30;99.90;;;;;;5048147;28;20278;-69
2023/04/07 07:34:31;;;;;;;0.40;0.40;;;8.40;99.90;;;;;;5047789;28;20238;-68
2023/04/07 07:37:06;;;;;;;0.40;0.40;;;8.60;99.90;;;;;;5030563;28;20536;-68
2023/04/07 07:39:32;;;;;;;0.40;0.40;;;8.50;99.90;;;;;;5048162;28;20718;-68
2023/04/07 07:42:00;;;;;;;0.40;0.40;;;8.40;99.90;;;;;;5048400;28;20276;-68
2023/04/07 07:44:27;;;;;;;0.40;0.40;;;8.60;99.90;;;;;;5046968;28;20265;-71
2023/04/07 07:46:56;;;;;;;0.40;0.40;;;8.60;99.90;;;;;;5041173;28;20191;-68
2023/04/07 07:49:23;;;;;;;0.40;0.40;;;8.60;99.90;;;;;;5043500;28;20722;-69
2023/04/07 07:51:50;;;;;;;0.40;0.40;;;8.60;99.90;;;;;;5039452;28;20215;-67
2023/04/07 07:54:17;;;;;;;0.40;0.40;;;8.50;99.90;;;;;;5042097;28;20675;-67
2023/04/07 07:56:44;;;;;;;0.40;0.40;;;8.50;99.90;;;;;;5036010;28;20703;-68
2023/04/07 07:59:11;;;;;;;0.40;0.40;;;8.40;99.90;;;;;;5043644;28;20195;-68
2023/04/07 08:01:38;;;;;;;0.40;0.40;;;8.40;99.90;;;;;;5033830;28;20192;-67
2023/04/07 08:04:06;;;;;;;0.40;0.40;;;8.50;99.90;;;;;;5040031;28;20229;-67
2023/04/07 08:06:33;;;;;;;0.40;0.40;;;8.80;99.90;;;;;;5040551;28;20687;-67
2023/04/07 08:09:00;;;;;;;0.40;0.40;;;9.10;99.90;;;;;;5037827;28;20226;-68
2023/04/07 08:11:27;;;;;;;0.40;0.40;;;9.10;99.90;;;;;;5040276;28;20202;-67
2023/04/07 08:13:54;;;;;;;0.40;0.40;;;9.10;99.90;;;;;;5042768;28;20219;-67
2023/04/07 08:16:22;;;;;;;0.40;0.40;;;9.20;99.90;;;;;;5029208;28;20231;-67
2023/04/07 08:18:50;;;;;;;0.40;0.40;;;9.30;99.90;;;;;;5064838;28;20245;-66
2023/04/07 08:21:18;;;;;;;0.40;0.40;;;9.20;99.90;;;;;;5043777;28;20207;-67
2023/04/07 08:23:45;;;;;;;0.43;0.43;;;9.10;99.90;;;;;;5044047;28;20216;-67
2023/04/07 08:26:13;;;;;;;0.40;0.40;;;9.10;99.90;;;;;;5027358;28;20211;-68
2023/04/07 08:28:40;;;;;;;0.40;0.40;;;9.10;99.90;;;;;;5045355;28;20195;-67
2023/04/07 08:31:07;;;;;;;0.40;0.40;;;9.00;99.90;;;;;;5042977;28;20199;-67
2023/04/07 08:33:34;;;;;;;0.40;0.40;;;9.00;99.90;;;;;;5049773;28;20686;-67
2023/04/07 08:36:01;;;;;;;0.40;0.40;;;8.90;99.90;;;;;;5062081;28;20231;-66
2023/04/07 08:38:28;;;;;;;0.40;0.40;;;8.90;99.90;;;;;;5052346;28;20254;-69
2023/04/07 08:41:05;;;;;;;0.40;0.40;;;8.90;99.90;;;;;;5051444;28;20203;-67
2023/04/07 08:43:35;;;;;;;0.40;0.40;;;9.00;99.90;;;;;;5049913;28;20328;-68
2023/04/07 08:46:03;;;;;;;0.40;0.40;;;9.10;99.90;;;;;;5050114;28;20184;-68
2023/04/07 08:48:34;;;;;;;0.50;0.50;;;8.90;99.90;;;;;;5052291;28;20633;-67
2023/04/07 08:51:05;;;;;;;0.40;0.40;;;9.00;99.90;;;;;;5049712;28;20819;-66
2023/04/07 08:53:50;;;;;;;0.40;0.40;;;9.00;99.90;;;;;;5051335;28;20210;-67
2023/04/07 08:56:18;;;;;;;0.40;0.40;;;9.20;99.90;;;;;;5051554;28;20211;-67
2023/04/07 08:58:47;;;;;;;0.40;0.40;;;9.20;99.90;;;;;;5050782;28;20203;-66
2023/04/07 09:01:15;;;;;;;0.40;0.40;;;9.20;99.90;;;;;;5041271;28;20204;-66
2023/04/07 09:03:44;;;;;;;0.40;0.40;;;9.10;99.90;;;;;;5044156;28;20231;-69
2023/04/07 09:06:11;;;;;;;0.40;0.40;;;9.10;99.90;;;;;;5045737;28;20282;-66
2023/04/07 09:08:38;;;;;;;0.40;0.40;;;9.40;99.90;;;;;;5045183;28;20192;-66
2023/04/07 09:11:05;;;;;;;0.40;0.40;;;9.50;99.90;;;;;;5043203;28;20187;-67
2023/04/07 09:13:32;;;;;;;0.40;0.40;;;9.30;99.90;;;;;;5045235;28;20531;-67
2023/04/07 09:16:01;;;;;;;0.40;0.40;;;9.50;99.90;;;;;;5043550;28;20683;-66
2023/04/07 09:18:29;;;;;;;0.40;0.40;;;9.60;99.90;;;;;;5042292;28;20195;-66
2023/04/07 09:21:00;;;;;;;0.40;0.40;;;9.60;99.90;;;;;;5043986;28;20192;-68
2023/04/07 09:23:32;;;;;;;0.40;0.40;;;9.60;99.90;;;;;;5042793;28;20196;-67
2023/04/07 09:26:23;;;;;;;0.40;0.40;;;9.70;99.90;;;;;;5042408;28;20708;-68
2023/04/07 09:28:58;;;;;;;0.40;0.40;;;9.70;99.90;;;;;;5045204;28;20305;-67
2023/04/07 09:31:45;;;;;;;0.40;0.40;;;9.70;99.90;;;;;;5022902;28;20701;-68
2023/04/07 09:34:28;;;;;;;0.50;0.50;;;9.90;99.90;;;;;;5048175;28;20257;-68
2023/04/07 09:36:56;;;;;;;0.40;0.40;;;9.90;99.90;;;;;;5048836;28;20206;-67
2023/04/07 09:39:24;;;;;;;0.40;0.40;;;10.00;99.90;;;;;;5049015;28;20261;-67
2023/04/07 09:41:52;;;;;;;0.40;0.40;;;10.00;99.90;;;;;;5048046;28;20204;-66
2023/04/07 09:44:20;;;;;;;0.40;0.40;;;10.00;99.90;;;;;;5048420;28;20207;-68
2023/04/07 09:46:55;;;;;;;0.40;0.40;;;9.90;99.90;;;;;;5049260;28;20627;-67
2023/04/07 09:49:24;;;;;;;0.40;0.40;;;9.90;99.90;;;;;;5048608;28;20232;-67
2023/04/07 09:51:56;;;;;;;0.40;0.40;;;9.90;99.90;;;;;;5047275;28;20200;-68
2023/04/07 09:54:33;;;;;;;0.40;0.40;;;10.00;99.90;;;;;;5048728;28;20227;-68
2023/04/07 09:57:02;;;;;;;0.40;0.40;;;9.90;99.90;;;;;;5050280;28;20257;-68
2023/04/07 09:59:31;;;;;;;0.40;0.40;;;10.00;99.90;;;;;;5031944;28;20242;-68
2023/04/07 10:01:58;;;;;;;0.40;0.40;;;9.90;99.90;;;;;;5045464;28;20637;-68
2023/04/07 10:04:28;;;;;;;0.40;0.40;;;9.90;99.90;;;;;;5040822;28;20247;-73
2023/04/07 10:06:56;;;;;;;0.40;0.40;;;10.00;99.90;;;;;;5041783;28;20227;-67
2023/04/07 10:09:25;;;;;;;0.40;0.40;;;10.00;99.90;;;;;;5033984;28;20301;-67
2023/04/07 10:11:55;;;;;;;1.37;1.37;;;9.90;99.90;;;;;;5054075;28;20942;-68
2023/04/07 10:14:26;;;;;;;0.40;0.40;;;10.00;99.90;;;;;;5043728;28;20659;-68
2023/04/07 10:16:54;;;;;;;0.40;0.40;;;9.90;99.90;;;;;;5022442;28;20223;-68
2023/04/07 10:19:23;;;;;;;0.40;0.40;;;9.70;99.90;;;;;;5043787;28;20258;-68
2023/04/07 10:21:53;;;;;;;0.40;0.40;;;9.70;99.90;;;;;;5044690;28;20200;-68
2023/04/07 10:24:41;;;;;;;0.40;0.40;;;9.70;99.90;;;;;;5055292;28;20315;-67
2023/04/07 10:27:13;;;;;;;0.40;0.40;;;9.60;99.90;;;;;;5046614;28;20725;-68
2023/04/07 10:29:42;;;;;;;0.40;0.40;;;9.70;99.90;;;;;;5047111;28;20200;-67
2023/04/07 10:32:10;;;;;;;0.40;0.40;;;9.70;99.90;;;;;;5045703;28;20253;-67
2023/04/07 10:34:49;;;;;;;0.40;0.40;;;9.70;99.90;;;;;;5046504;28;20857;-67
2023/04/07 10:37:20;;;;;;;0.40;0.40;;;9.70;99.90;;;;;;5043848;28;20195;-66
2023/04/07 10:39:48;;;;;;;0.40;0.40;;;9.60;99.90;;;;;;5030616;28;20195;-67
2023/04/07 10:42:37;;;;;;;0.40;0.40;;;9.70;29.90;;;;;;5047533;28;20192;-67
2023/04/07 10:45:09;;;;;;;0.40;0.40;;;9.80;1.00;;;;;;5048102;28;20610;-67
2023/04/07 10:47:58;;;;;;;0.40;0.40;;;9.70;99.90;;;;;;5030436;28;20664;-68
2023/04/07 10:50:27;;;;;;;0.40;0.40;;;9.70;1.00;;;;;;5047474;28;20200;-69
2023/04/07 10:53:11;;;;;;;0.40;0.40;;;9.50;1.00;;;;;;5039853;28;20203;-68
2023/04/07 10:55:45;;;;;;;0.40;0.40;;;9.50;1.00;;;;;;5042452;28;20213;-68
2023/04/07 10:58:13;;;;;;;0.40;0.40;;;9.40;1.00;;;;;;5033533;28;20209;-69
2023/04/07 11:00:40;;;;;;;0.40;0.40;;;9.50;1.00;;;;;;5021269;28;20768;-69
2023/04/07 11:03:12;;;;;;;0.40;0.40;;;9.70;1.00;;;;;;5040200;28;20242;-69
2023/04/07 11:05:41;;;;;;;0.40;0.40;;;9.50;1.00;;;;;;5032818;28;20207;-69
2023/04/07 11:08:08;;;;;;;0.40;0.40;;;9.30;1.00;;;;;;5037885;28;20298;-69
2023/04/07 11:10:38;;;;;;;0.40;0.40;;;9.40;1.00;;;;;;5038892;28;20586;-69
2023/04/07 11:13:09;;;;;;;0.40;0.40;;;9.30;1.00;;;;;;5032140;28;20940;-69
2023/04/07 11:15:37;;;;;;;0.40;0.40;;;9.30;99.90;;;;;;5037821;28;20203;-69
2023/04/07 11:18:14;;;;;;;0.40;0.40;;;9.30;99.90;;;;;;5027414;28;20192;-69
2023/04/07 11:20:56;;;;;;;0.40;0.40;;;9.40;99.90;;;;;;5037397;28;20300;-69
2023/04/07 11:23:25;;;;;;;0.40;0.40;;;9.40;99.90;;;;;;5041407;28;20201;-69
2023/04/07 11:26:01;;;;;;;0.40;0.40;;;9.50;99.90;;;;;;5042303;28;21100;-68
2023/04/07 11:28:29;;;;;;;0.40;0.40;;;9.50;99.90;;;;;;5040606;28;20736;-68
2023/04/07 11:30:58;;;;;;;0.40;0.40;;;9.50;99.90;;;;;;5040846;28;20192;-68
2023/04/07 11:33:29;;;;;;;0.40;0.40;;;9.50;99.90;;;;;;5026474;28;20253;-68
2023/04/07 11:36:00;;;;;;;0.40;0.40;;;9.50;99.90;;;;;;5028106;28;20206;-69
2023/04/07 11:38:34;;;;;;;0.40;0.40;;;9.40;99.90;;;;;;5038216;28;20210;-68
2023/04/07 11:41:11;;;;;;;0.50;0.50;;;9.50;99.90;;;;;;5041473;28;20195;-68
2023/04/07 11:43:40;;;;;;;0.40;0.40;;;9.60;99.90;;;;;;5028129;28;20213;-69
2023/04/07 11:46:14;;;;;;;0.40;0.40;;;9.60;99.90;;;;;;5033699;28;20203;-69
2023/04/07 11:48:43;;;;;;;0.40;0.40;;;9.50;99.90;;;;;;5039511;28;20265;-69
2023/04/07 11:51:19;;;;;;;0.40;0.40;;;9.50;99.90;;;;;;5044669;28;20200;-68
2023/04/07 11:53:46;;;;;;;0.50;0.50;;;9.60;99.90;;;;;;5045862;28;20192;-70
2023/04/07 11:56:15;;;;;;;0.40;0.40;;;9.70;99.90;;;;;;5028931;28;20203;-69
2023/04/07 11:58:50;;;;;;;0.40;0.40;;;9.60;99.50;;;;;;5061026;28;20226;-70
2023/04/07 12:01:18;;;;;;;0.50;0.50;;;9.50;99.90;;;;;;5042755;28;20746;-69
2023/04/07 12:04:02;;;;;;;0.40;0.40;;;9.60;99.90;;;;;;5043229;28;20234;-68
2023/04/07 12:06:33;;;;;;;0.40;0.40;;;9.60;99.90;;;;;;5022915;28;20283;-69
2023/04/07 12:09:01;;;;;;;0.40;0.40;;;9.60;99.90;;;;;;5038512;28;20199;-69
2023/04/07 12:11:29;;;;;;;0.40;0.40;;;9.50;99.90;;;;;;5038100;28;20325;-69
2023/04/07 12:13:56;;;;;;;0.40;0.40;;;9.60;99.90;;;;;;5052901;28;20258;-69
2023/04/07 12:16:23;;;;;;;0.40;0.40;;;9.50;99.90;;;;;;5041544;28;20204;-69
2023/04/07 12:18:51;;;;;;;0.40;0.40;;;9.40;99.90;;;;;;5042052;28;20199;-69
2023/04/07 12:21:18;;;;;;;0.40;0.40;;;9.30;99.90;;;;;;5040173;28;20282;-69
2023/04/07 12:23:46;;;;;;;0.40;0.40;;;9.40;99.90;;;;;;5045170;28;20230;-68
2023/04/07 12:26:13;;;;;;;0.40;0.40;;;9.50;99.90;;;;;;5034713;28;20373;-69
2023/04/07 12:28:40;;;;;;;0.40;0.40;;;9.40;99.90;;;;;;5042745;28;20401;-68
2023/04/07 12:31:07;;;;;;;0.40;0.40;;;9.40;99.90;;;;;;5042178;28;20195;-69
2023/04/07 12:33:34;;;;;;;0.40;0.40;;;9.40;99.90;;;;;;5041340;28;20559;-69
2023/04/07 12:36:01;;;;;;;0.40;0.40;;;9.40;99.90;;;;;;5022396;28;20793;-68
2023/04/07 12:38:29;;;;;;;0.40;0.40;;;9.60;99.90;;;;;;5039362;28;21046;-69
2023/04/07 12:41:02;;;;;;;1.37;1.37;;;9.60;99.90;;;;;;5041453;28;20231;-69
2023/04/07 12:43:30;;;;;;;0.40;0.40;;;9.70;56.60;;;;;;5040138;28;20664;-68
2023/04/07 12:45:57;;;;;;;0.40;0.40;;;9.70;99.90;;;;;;5042005;28;20216;-69
2023/04/07 12:48:26;;;;;;;0.40;0.40;;;9.70;79.60;;;;;;5042923;28;20623;-69
2023/04/07 12:50:54;;;;;;;0.40;0.40;;;9.80;64.40;;;;;;5040858;28;20711;-68
2023/04/07 12:53:21;;;;;;;0.40;0.40;;;9.90;93.30;;;;;;5042016;28;20559;-68
2023/04/07 12:55:48;;;;;;;0.40;0.40;;;9.80;16.60;;;;;;5039243;28;20567;-68
2023/04/07 12:58:17;;;;;;;0.40;0.40;;;9.70;1.30;;;;;;5032996;28;20662;-69
2023/04/07 13:00:47;;;;;;;0.40;0.40;;;9.80;43.50;;;;;;5044261;28;20675;-69
2023/04/07 13:03:14;;;;;;;0.30;0.30;;;9.70;1.00;;;;;;5039575;28;20597;-68
2023/04/07 13:05:41;;;;;;;1.50;1.17;;;9.60;1.00;;;;;;5042327;28;20211;-68
2023/04/07 13:08:09;;;;;;;0.30;0.30;;;9.70;1.00;;;;;;5043618;28;20196;-68
2023/04/07 13:10:36;;;;;;;0.40;0.40;;;9.90;1.00;;;;;;5044626;28;20226;-69
2023/04/07 13:13:03;;;;;;;0.40;0.40;;;10.00;1.00;;;;;;5041531;28;20196;-69
2023/04/07 13:15:30;;;;;;;0.40;0.40;;;10.10;1.00;;;;;;5046066;28;20199;-69